»·PEaware :: N123AN KCRQ-KSNA

N123AN :: KCRQ-KSNA

FLIGHT INFORMATION

Flight Status: Arrived
Operator: Privately registered:
United States
More flights under this callsign
Pilot: Vaclav J. (27943)
Aircraft: CESSNA 182 SKYLANE
(C182)
More flights by this aircraft type
Origin: KCRQ McClellan-Palomar
United States
Destination: KSNA John Wayne-Orange Co
United States
More flights between these airports :: More routes between these airports
Route: OCN SLI
File this flight plan on PilotEdge
Remarks:
Altitude:
(Current/Filed)
4,000ft
Speed:
(Current/Filed)
140kts
Departed: 19-Apr-20 11:52 AM
Arrived: 19-Apr-20 12:38 PM
Distance/Time
Traveled:
44nm/0:45
Distance/Time
To Go:
Arrived

Flight Plot

Page will automatically refresh every two minutes.


Map Options




Map Legend


Flown Route
Filed Route
Departure Airport
Arrival Airport
Navaid (VOR, NDB)
Fix

Horizontal Profiles

Position Reports

Time Latitude Longitude Heading Altitude Ground
Speed
19-Apr-20 11:23 33.126636 -117.275225 167 337ft 0kts
19-Apr-20 11:24 33.126636 -117.275225 167 337ft 0kts
19-Apr-20 11:25 33.126636 -117.275225 167 337ft 0kts
19-Apr-20 11:26 33.126636 -117.275225 167 337ft 0kts
19-Apr-20 11:27 33.126636 -117.275225 167 337ft 0kts
19-Apr-20 11:28 33.126636 -117.275225 167 337ft 0kts
19-Apr-20 11:29 33.126636 -117.275225 167 337ft 0kts
19-Apr-20 11:30 33.126636 -117.275225 167 337ft 0kts
19-Apr-20 11:31 33.126636 -117.275225 167 337ft 0kts
19-Apr-20 11:32 33.126636 -117.275225 167 337ft 0kts
19-Apr-20 11:33 33.126636 -117.275225 167 337ft 0kts
19-Apr-20 11:34 33.126636 -117.275225 167 337ft 0kts
19-Apr-20 11:35 33.126636 -117.275225 167 337ft 0kts
19-Apr-20 11:36 33.126636 -117.275225 167 337ft 0kts
19-Apr-20 11:37 33.126636 -117.275225 167 337ft 0kts
19-Apr-20 11:38 33.126636 -117.275225 167 337ft 0kts
19-Apr-20 11:38 33.126636 -117.275225 167 337ft 0kts
19-Apr-20 11:40 33.126636 -117.275225 167 337ft 0kts
19-Apr-20 11:41 33.126636 -117.275225 167 337ft 0kts
19-Apr-20 11:41 33.126636 -117.275225 167 337ft 0kts
19-Apr-20 11:42 33.126636 -117.275225 167 337ft 0kts
19-Apr-20 11:43 33.126636 -117.275225 167 337ft 0kts
19-Apr-20 11:45 33.126636 -117.275225 167 337ft 0kts
19-Apr-20 11:45 33.126636 -117.275225 167 337ft 0kts
19-Apr-20 11:46 33.127270 -117.274886 9 337ft 15kts
19-Apr-20 11:47 33.128666 -117.272495 53 337ft 0kts
19-Apr-20 11:48 33.128666 -117.272494 52 337ft 0kts
19-Apr-20 11:49 33.128666 -117.272495 53 337ft 0kts
19-Apr-20 11:50 33.128666 -117.272495 53 337ft 0kts
19-Apr-20 11:51 33.128951 -117.275728 258 339ft 60kts
19-Apr-20 11:52 33.126845 -117.302246 262 1352ft 90kts
19-Apr-20 11:53 33.124802 -117.329482 262 2662ft 82kts
19-Apr-20 11:54 33.122263 -117.364158 264 3354ft 116kts
19-Apr-20 11:55 33.146340 -117.384292 338 3926ft 138kts
19-Apr-20 11:56 33.184284 -117.398103 341 3926ft 144kts
19-Apr-20 11:57 33.222771 -117.411508 341 3927ft 144kts
19-Apr-20 11:58 33.256003 -117.435877 316 3928ft 142kts
19-Apr-20 11:59 33.284620 -117.468913 314 3929ft 142kts
19-Apr-20 12:00 33.312928 -117.501888 314 3930ft 141kts
19-Apr-20 12:01 33.341119 -117.534772 314 3931ft 141kts
19-Apr-20 12:02 33.369290 -117.567664 313 3932ft 141kts
19-Apr-20 12:03 33.397244 -117.600333 312 3933ft 140kts
19-Apr-20 12:04 33.425074 -117.632921 313 3933ft 140kts
19-Apr-20 12:05 33.452423 -117.664964 314 3935ft 141kts
19-Apr-20 12:06 33.479462 -117.696648 315 3935ft 143kts
19-Apr-20 12:07 33.506846 -117.728748 315 3926ft 145kts
19-Apr-20 12:08 33.534431 -117.761131 315 3925ft 147kts
19-Apr-20 12:09 33.562045 -117.793585 315 3929ft 148kts
19-Apr-20 12:10 33.590208 -117.826719 315 3925ft 148kts
19-Apr-20 12:11 33.615785 -117.856842 315 3926ft 148kts
19-Apr-20 12:12 33.640495 -117.885897 316 3926ft 148kts
19-Apr-20 12:13 33.666408 -117.916201 315 3926ft 147kts
19-Apr-20 12:14 33.691269 -117.945570 312 3928ft 146kts
19-Apr-20 12:15 33.718155 -117.968312 357 3933ft 147kts
19-Apr-20 12:16 33.748765 -117.948417 30 4067ft 141kts
19-Apr-20 12:17 33.781109 -117.923023 30 4071ft 141kts
19-Apr-20 12:18 33.813010 -117.898153 31 3983ft 146kts
19-Apr-20 12:19 33.843748 -117.874478 30 4076ft 142kts
19-Apr-20 12:20 33.873745 -117.851369 29 4046ft 152kts
19-Apr-20 12:21 33.904690 -117.827450 29 3937ft 161kts
19-Apr-20 12:22 33.940025 -117.798991 31 4018ft 156kts
19-Apr-20 12:23 33.975629 -117.771453 29 3955ft 158kts
19-Apr-20 12:24 34.011858 -117.743712 29 4057ft 150kts
19-Apr-20 12:25 34.018599 -117.709207 183 4054ft 144kts
19-Apr-20 12:26 33.975784 -117.715582 187 3995ft 146kts
19-Apr-20 12:27 33.938131 -117.719088 190 3915ft 151kts
19-Apr-20 12:28 33.904713 -117.724532 186 3942ft 149kts
19-Apr-20 12:29 33.871218 -117.744499 210 3820ft 153kts
19-Apr-20 12:30 33.838504 -117.765997 206 3598ft 160kts
19-Apr-20 12:31 33.803668 -117.786549 209 2735ft 171kts
19-Apr-20 12:32 33.772301 -117.807489 211 2053ft 124kts
19-Apr-20 12:33 33.748164 -117.822948 207 1419ft 88kts
19-Apr-20 12:34 33.728664 -117.835514 207 1129ft 89kts
19-Apr-20 12:35 33.707428 -117.848808 206 638ft 95kts
19-Apr-20 12:36 33.687282 -117.861527 205 229ft 82kts
19-Apr-20 12:37 33.675917 -117.869792 288 62ft 0kts
19-Apr-20 12:38 33.675936 -117.869925 259 62ft 0kts
19-Apr-20 12:39 33.675595 -117.871427 293 62ft 8kts
19-Apr-20 12:40 33.675061 -117.871963 29 62ft 0kts
19-Apr-20 12:41 33.675061 -117.871963 29 62ft 0kts

Navigation Log

Ident Type
Flight plan parsing failed, navigation log unavailable